sensor_id;sensor_type;location;lat;lon;timestamp;P1;durP1;ratioP1;P2;durP2;ratioP2
47603;SDS011;33326;51.116;6.900;2022-09-03T00:00:39;2.80;;;1.23;;
47603;SDS011;33326;51.116;6.900;2022-09-03T00:05:46;2.22;;;1.20;;
47603;SDS011;33326;51.116;6.900;2022-09-03T00:10:52;10.00;;;1.58;;
47603;SDS011;33326;51.116;6.900;2022-09-03T00:16:02;5.43;;;1.20;;
47603;SDS011;33326;51.116;6.900;2022-09-03T00:21:10;3.65;;;1.08;;
47603;SDS011;33326;51.116;6.900;2022-09-03T00:26:17;2.97;;;1.20;;
47603;SDS011;33326;51.116;6.900;2022-09-03T00:31:28;3.85;;;1.50;;
47603;SDS011;33326;51.116;6.900;2022-09-03T00:36:36;2.83;;;1.17;;
47603;SDS011;33326;51.116;6.900;2022-09-03T00:41:45;1.73;;;1.30;;
47603;SDS011;33326;51.116;6.900;2022-09-03T00:47:01;4.68;;;1.30;;
47603;SDS011;33326;51.116;6.900;2022-09-03T00:52:12;3.58;;;1.23;;
47603;SDS011;33326;51.116;6.900;2022-09-03T00:57:26;2.35;;;1.38;;
47603;SDS011;33326;51.116;6.900;2022-09-03T01:02:40;1.90;;;1.10;;
47603;SDS011;33326;51.116;6.900;2022-09-03T01:07:53;1.40;;;0.98;;
47603;SDS011;33326;51.116;6.900;2022-09-03T01:13:06;3.78;;;0.98;;
47603;SDS011;33326;51.116;6.900;2022-09-03T01:18:16;2.25;;;1.38;;
47603;SDS011;33326;51.116;6.900;2022-09-03T01:23:33;4.70;;;1.10;;
47603;SDS011;33326;51.116;6.900;2022-09-03T01:29:05;3.72;;;1.38;;
47603;SDS011;33326;51.116;6.900;2022-09-03T01:34:16;3.65;;;1.30;;
47603;SDS011;33326;51.116;6.900;2022-09-03T01:39:27;2.15;;;1.15;;
47603;SDS011;33326;51.116;6.900;2022-09-03T01:44:41;4.15;;;1.20;;
47603;SDS011;33326;51.116;6.900;2022-09-03T01:50:06;2.55;;;1.20;;
47603;SDS011;33326;51.116;6.900;2022-09-03T01:55:20;2.67;;;1.30;;
47603;SDS011;33326;51.116;6.900;2022-09-03T02:00:32;2.30;;;1.25;;
47603;SDS011;33326;51.116;6.900;2022-09-03T02:05:38;3.42;;;1.10;;
47603;SDS011;33326;51.116;6.900;2022-09-03T02:10:44;2.33;;;1.05;;
47603;SDS011;33326;51.116;6.900;2022-09-03T02:15:51;1.65;;;1.10;;
47603;SDS011;33326;51.116;6.900;2022-09-03T02:20:55;1.25;;;0.90;;
47603;SDS011;33326;51.116;6.900;2022-09-03T02:25:59;3.35;;;1.40;;
47603;SDS011;33326;51.116;6.900;2022-09-03T02:31:04;3.90;;;1.27;;
47603;SDS011;33326;51.116;6.900;2022-09-03T02:36:07;2.88;;;1.10;;
47603;SDS011;33326;51.116;6.900;2022-09-03T02:41:11;3.92;;;1.13;;
47603;SDS011;33326;51.116;6.900;2022-09-03T02:46:17;2.10;;;1.08;;
47603;SDS011;33326;51.116;6.900;2022-09-03T02:51:26;1.92;;;1.33;;
47603;SDS011;33326;51.116;6.900;2022-09-03T02:56:33;4.85;;;1.45;;
47603;SDS011;33326;51.116;6.900;2022-09-03T03:01:36;2.70;;;1.20;;
47603;SDS011;33326;51.116;6.900;2022-09-03T03:06:38;3.50;;;1.50;;
47603;SDS011;33326;51.116;6.900;2022-09-03T03:11:40;2.78;;;1.00;;
47603;SDS011;33326;51.116;6.900;2022-09-03T03:16:43;1.70;;;1.08;;
47603;SDS011;33326;51.116;6.900;2022-09-03T03:21:45;1.13;;;1.00;;
47603;SDS011;33326;51.116;6.900;2022-09-03T03:26:47;1.50;;;0.90;;
47603;SDS011;33326;51.116;6.900;2022-09-03T03:31:51;3.10;;;1.15;;
47603;SDS011;33326;51.116;6.900;2022-09-03T03:36:53;2.55;;;0.90;;
47603;SDS011;33326;51.116;6.900;2022-09-03T03:41:55;2.75;;;1.25;;
47603;SDS011;33326;51.116;6.900;2022-09-03T03:46:58;3.25;;;1.13;;
47603;SDS011;33326;51.116;6.900;2022-09-03T03:52:01;3.35;;;1.02;;
47603;SDS011;33326;51.116;6.900;2022-09-03T03:57:03;3.60;;;1.20;;
47603;SDS011;33326;51.116;6.900;2022-09-03T04:02:06;4.63;;;1.05;;
47603;SDS011;33326;51.116;6.900;2022-09-03T04:07:08;1.67;;;1.05;;
47603;SDS011;33326;51.116;6.900;2022-09-03T04:12:10;2.03;;;1.30;;
47603;SDS011;33326;51.116;6.900;2022-09-03T04:17:13;3.13;;;1.27;;
47603;SDS011;33326;51.116;6.900;2022-09-03T04:22:15;1.73;;;1.08;;
47603;SDS011;33326;51.116;6.900;2022-09-03T04:27:18;1.55;;;1.00;;
47603;SDS011;33326;51.116;6.900;2022-09-03T04:32:21;1.63;;;1.10;;
47603;SDS011;33326;51.116;6.900;2022-09-03T04:42:42;3.00;;;1.20;;
47603;SDS011;33326;51.116;6.900;2022-09-03T04:47:48;2.92;;;1.10;;
47603;SDS011;33326;51.116;6.900;2022-09-03T04:52:58;2.97;;;1.23;;
47603;SDS011;33326;51.116;6.900;2022-09-03T04:58:01;4.80;;;1.00;;
47603;SDS011;33326;51.116;6.900;2022-09-03T05:03:05;1.88;;;0.93;;
47603;SDS011;33326;51.116;6.900;2022-09-03T05:08:07;2.90;;;1.13;;
47603;SDS011;33326;51.116;6.900;2022-09-03T05:13:10;3.88;;;1.30;;
47603;SDS011;33326;51.116;6.900;2022-09-03T05:18:13;4.80;;;1.10;;
47603;SDS011;33326;51.116;6.900;2022-09-03T05:23:15;2.92;;;1.00;;
47603;SDS011;33326;51.116;6.900;2022-09-03T05:28:21;3.95;;;1.20;;
47603;SDS011;33326;51.116;6.900;2022-09-03T05:33:24;3.67;;;1.20;;
47603;SDS011;33326;51.116;6.900;2022-09-03T05:38:27;3.90;;;1.10;;
47603;SDS011;33326;51.116;6.900;2022-09-03T05:43:30;1.60;;;1.00;;
47603;SDS011;33326;51.116;6.900;2022-09-03T05:48:34;3.20;;;1.00;;
47603;SDS011;33326;51.116;6.900;2022-09-03T05:53:38;2.83;;;1.15;;
47603;SDS011;33326;51.116;6.900;2022-09-03T05:58:41;1.98;;;1.05;;
47603;SDS011;33326;51.116;6.900;2022-09-03T06:03:47;3.45;;;1.35;;
47603;SDS011;33326;51.116;6.900;2022-09-03T06:08:54;3.20;;;1.02;;
47603;SDS011;33326;51.116;6.900;2022-09-03T06:13:58;1.10;;;0.98;;
47603;SDS011;33326;51.116;6.900;2022-09-03T06:19:03;2.20;;;1.10;;
47603;SDS011;33326;51.116;6.900;2022-09-03T06:24:06;2.17;;;1.20;;
47603;SDS011;33326;51.116;6.900;2022-09-03T06:29:09;2.78;;;1.30;;
47603;SDS011;33326;51.116;6.900;2022-09-03T06:34:12;2.63;;;1.33;;
47603;SDS011;33326;51.116;6.900;2022-09-03T06:39:15;2.47;;;1.15;;
47603;SDS011;33326;51.116;6.900;2022-09-03T06:44:17;3.75;;;1.10;;
47603;SDS011;33326;51.116;6.900;2022-09-03T06:49:20;2.97;;;1.30;;
47603;SDS011;33326;51.116;6.900;2022-09-03T06:54:25;6.18;;;1.50;;
47603;SDS011;33326;51.116;6.900;2022-09-03T06:59:27;7.88;;;1.25;;
47603;SDS011;33326;51.116;6.900;2022-09-03T07:04:32;4.97;;;1.33;;
47603;SDS011;33326;51.116;6.900;2022-09-03T07:09:34;8.50;;;1.60;;
47603;SDS011;33326;51.116;6.900;2022-09-03T07:14:37;2.78;;;1.27;;
47603;SDS011;33326;51.116;6.900;2022-09-03T07:19:41;12.90;;;2.33;;
47603;SDS011;33326;51.116;6.900;2022-09-03T07:24:43;7.82;;;1.10;;
47603;SDS011;33326;51.116;6.900;2022-09-03T07:29:46;3.75;;;1.33;;
47603;SDS011;33326;51.116;6.900;2022-09-03T07:34:49;4.03;;;1.35;;
47603;SDS011;33326;51.116;6.900;2022-09-03T07:39:52;2.30;;;0.93;;
47603;SDS011;33326;51.116;6.900;2022-09-03T07:44:54;6.13;;;1.63;;
47603;SDS011;33326;51.116;6.900;2022-09-03T07:50:05;10.00;;;2.08;;
47603;SDS011;33326;51.116;6.900;2022-09-03T07:55:08;9.68;;;1.40;;
47603;SDS011;33326;51.116;6.900;2022-09-03T08:00:10;7.57;;;1.60;;
47603;SDS011;33326;51.116;6.900;2022-09-03T08:05:15;2.70;;;1.30;;
47603;SDS011;33326;51.116;6.900;2022-09-03T08:10:20;2.80;;;0.90;;
47603;SDS011;33326;51.116;6.900;2022-09-03T08:15:23;4.28;;;1.33;;
47603;SDS011;33326;51.116;6.900;2022-09-03T08:20:27;10.50;;;2.10;;
47603;SDS011;33326;51.116;6.900;2022-09-03T08:25:28;3.90;;;1.20;;
47603;SDS011;33326;51.116;6.900;2022-09-03T08:30:30;4.38;;;1.20;;
47603;SDS011;33326;51.116;6.900;2022-09-03T08:35:35;1.25;;;0.98;;
47603;SDS011;33326;51.116;6.900;2022-09-03T08:40:37;6.43;;;1.45;;
47603;SDS011;33326;51.116;6.900;2022-09-03T08:45:39;3.72;;;1.40;;
47603;SDS011;33326;51.116;6.900;2022-09-03T08:50:43;3.13;;;1.50;;
47603;SDS011;33326;51.116;6.900;2022-09-03T08:55:49;3.38;;;1.33;;
47603;SDS011;33326;51.116;6.900;2022-09-03T09:00:54;2.83;;;1.17;;
47603;SDS011;33326;51.116;6.900;2022-09-03T09:06:06;4.18;;;1.15;;
47603;SDS011;33326;51.116;6.900;2022-09-03T09:11:16;5.90;;;1.50;;
47603;SDS011;33326;51.116;6.900;2022-09-03T09:16:30;2.42;;;1.45;;
47603;SDS011;33326;51.116;6.900;2022-09-03T09:21:41;4.43;;;1.50;;
47603;SDS011;33326;51.116;6.900;2022-09-03T09:26:47;1.85;;;1.30;;
47603;SDS011;33326;51.116;6.900;2022-09-03T09:31:49;4.97;;;1.90;;
47603;SDS011;33326;51.116;6.900;2022-09-03T09:36:54;2.22;;;1.63;;
47603;SDS011;33326;51.116;6.900;2022-09-03T09:41:57;10.50;;;2.88;;
47603;SDS011;33326;51.116;6.900;2022-09-03T09:47:02;4.57;;;1.70;;
47603;SDS011;33326;51.116;6.900;2022-09-03T09:52:08;3.92;;;1.25;;
47603;SDS011;33326;51.116;6.900;2022-09-03T09:57:13;7.47;;;1.77;;
47603;SDS011;33326;51.116;6.900;2022-09-03T10:02:19;4.03;;;1.83;;
47603;SDS011;33326;51.116;6.900;2022-09-03T10:07:28;2.35;;;1.40;;
47603;SDS011;33326;51.116;6.900;2022-09-03T10:12:32;7.50;;;1.65;;
47603;SDS011;33326;51.116;6.900;2022-09-03T10:17:41;3.97;;;1.45;;
47603;SDS011;33326;51.116;6.900;2022-09-03T10:22:53;2.88;;;1.83;;
47603;SDS011;33326;51.116;6.900;2022-09-03T10:27:57;2.22;;;1.52;;
47603;SDS011;33326;51.116;6.900;2022-09-03T10:33:03;5.28;;;1.50;;
47603;SDS011;33326;51.116;6.900;2022-09-03T10:38:16;3.08;;;1.58;;
47603;SDS011;33326;51.116;6.900;2022-09-03T10:43:29;4.15;;;1.60;;
47603;SDS011;33326;51.116;6.900;2022-09-03T10:48:54;10.43;;;2.33;;
47603;SDS011;33326;51.116;6.900;2022-09-03T10:54:14;4.40;;;1.45;;
47603;SDS011;33326;51.116;6.900;2022-09-03T10:59:31;3.55;;;1.80;;
47603;SDS011;33326;51.116;6.900;2022-09-03T11:04:41;5.53;;;2.15;;
47603;SDS011;33326;51.116;6.900;2022-09-03T11:09:50;3.75;;;1.83;;
47603;SDS011;33326;51.116;6.900;2022-09-03T11:14:58;6.77;;;2.20;;
47603;SDS011;33326;51.116;6.900;2022-09-03T11:20:09;3.83;;;1.90;;
47603;SDS011;33326;51.116;6.900;2022-09-03T11:25:17;2.65;;;1.70;;
47603;SDS011;33326;51.116;6.900;2022-09-03T11:30:23;2.05;;;1.55;;
47603;SDS011;33326;51.116;6.900;2022-09-03T11:35:39;2.78;;;1.80;;
47603;SDS011;33326;51.116;6.900;2022-09-03T11:40:55;2.42;;;1.55;;
47603;SDS011;33326;51.116;6.900;2022-09-03T11:46:00;7.95;;;2.05;;
47603;SDS011;33326;51.116;6.900;2022-09-03T11:51:14;3.20;;;1.88;;
47603;SDS011;33326;51.116;6.900;2022-09-03T11:56:27;2.85;;;1.83;;
47603;SDS011;33326;51.116;6.900;2022-09-03T12:01:30;3.65;;;2.10;;
47603;SDS011;33326;51.116;6.900;2022-09-03T12:12:05;3.42;;;1.92;;
47603;SDS011;33326;51.116;6.900;2022-09-03T12:17:16;3.58;;;2.13;;
47603;SDS011;33326;51.116;6.900;2022-09-03T12:22:26;2.88;;;2.38;;
47603;SDS011;33326;51.116;6.900;2022-09-03T12:27:31;2.42;;;1.65;;
47603;SDS011;33326;51.116;6.900;2022-09-03T12:32:36;5.60;;;2.40;;
47603;SDS011;33326;51.116;6.900;2022-09-03T12:37:40;4.18;;;2.13;;
47603;SDS011;33326;51.116;6.900;2022-09-03T12:42:45;5.05;;;2.13;;
47603;SDS011;33326;51.116;6.900;2022-09-03T12:47:48;6.18;;;2.20;;
47603;SDS011;33326;51.116;6.900;2022-09-03T12:52:51;4.60;;;1.98;;
47603;SDS011;33326;51.116;6.900;2022-09-03T12:58:00;5.40;;;2.00;;
47603;SDS011;33326;51.116;6.900;2022-09-03T13:03:07;2.85;;;1.70;;
47603;SDS011;33326;51.116;6.900;2022-09-03T13:08:13;2.92;;;1.90;;
47603;SDS011;33326;51.116;6.900;2022-09-03T13:13:23;2.25;;;2.03;;
47603;SDS011;33326;51.116;6.900;2022-09-03T13:18:27;3.20;;;1.70;;
47603;SDS011;33326;51.116;6.900;2022-09-03T13:23:44;4.82;;;1.83;;
47603;SDS011;33326;51.116;6.900;2022-09-03T13:29:04;2.40;;;1.60;;
47603;SDS011;33326;51.116;6.900;2022-09-03T13:34:30;3.58;;;1.92;;
47603;SDS011;33326;51.116;6.900;2022-09-03T13:39:37;1.57;;;1.47;;
47603;SDS011;33326;51.116;6.900;2022-09-03T13:44:45;1.75;;;1.50;;
47603;SDS011;33326;51.116;6.900;2022-09-03T13:49:52;1.80;;;1.52;;
47603;SDS011;33326;51.116;6.900;2022-09-03T13:55:17;3.00;;;1.50;;
47603;SDS011;33326;51.116;6.900;2022-09-03T14:05:40;10.73;;;2.03;;
47603;SDS011;33326;51.116;6.900;2022-09-03T14:10:52;1.67;;;1.58;;
47603;SDS011;33326;51.116;6.900;2022-09-03T14:16:03;4.10;;;1.77;;
47603;SDS011;33326;51.116;6.900;2022-09-03T14:21:09;1.88;;;1.38;;
47603;SDS011;33326;51.116;6.900;2022-09-03T14:26:15;2.53;;;1.40;;
47603;SDS011;33326;51.116;6.900;2022-09-03T14:31:25;4.55;;;1.80;;
47603;SDS011;33326;51.116;6.900;2022-09-03T14:36:36;2.13;;;1.40;;
47603;SDS011;33326;51.116;6.900;2022-09-03T14:41:51;3.05;;;1.70;;
47603;SDS011;33326;51.116;6.900;2022-09-03T14:47:09;3.67;;;1.73;;
47603;SDS011;33326;51.116;6.900;2022-09-03T14:52:37;1.73;;;1.60;;
47603;SDS011;33326;51.116;6.900;2022-09-03T14:58:12;2.63;;;1.40;;
47603;SDS011;33326;51.116;6.900;2022-09-03T15:09:02;2.47;;;1.58;;
47603;SDS011;33326;51.116;6.900;2022-09-03T15:14:19;2.90;;;1.60;;
47603;SDS011;33326;51.116;6.900;2022-09-03T15:19:35;2.88;;;1.60;;
47603;SDS011;33326;51.116;6.900;2022-09-03T15:25:06;2.47;;;1.40;;
47603;SDS011;33326;51.116;6.900;2022-09-03T15:30:17;3.00;;;1.70;;
47603;SDS011;33326;51.116;6.900;2022-09-03T15:35:33;3.10;;;1.50;;
47603;SDS011;33326;51.116;6.900;2022-09-03T15:40:51;1.92;;;1.83;;
47603;SDS011;33326;51.116;6.900;2022-09-03T15:45:58;2.10;;;1.60;;
47603;SDS011;33326;51.116;6.900;2022-09-03T15:51:07;2.10;;;1.70;;
47603;SDS011;33326;51.116;6.900;2022-09-03T15:56:18;1.90;;;1.60;;
47603;SDS011;33326;51.116;6.900;2022-09-03T16:01:26;2.60;;;2.40;;
47603;SDS011;33326;51.116;6.900;2022-09-03T16:06:44;2.80;;;1.80;;
47603;SDS011;33326;51.116;6.900;2022-09-03T16:11:54;1.83;;;1.70;;
47603;SDS011;33326;51.116;6.900;2022-09-03T16:17:04;3.28;;;1.70;;
47603;SDS011;33326;51.116;6.900;2022-09-03T16:22:16;2.67;;;1.98;;
47603;SDS011;33326;51.116;6.900;2022-09-03T16:27:27;4.43;;;2.15;;
47603;SDS011;33326;51.116;6.900;2022-09-03T16:32:37;2.13;;;1.73;;
47603;SDS011;33326;51.116;6.900;2022-09-03T16:37:56;2.13;;;1.85;;
47603;SDS011;33326;51.116;6.900;2022-09-03T16:43:07;2.20;;;2.00;;
47603;SDS011;33326;51.116;6.900;2022-09-03T16:48:22;4.10;;;2.42;;
47603;SDS011;33326;51.116;6.900;2022-09-03T16:53:35;2.22;;;1.88;;
47603;SDS011;33326;51.116;6.900;2022-09-03T17:04:11;3.47;;;2.22;;
47603;SDS011;33326;51.116;6.900;2022-09-03T17:09:36;2.97;;;2.03;;
47603;SDS011;33326;51.116;6.900;2022-09-03T17:20:33;2.03;;;1.70;;
47603;SDS011;33326;51.116;6.900;2022-09-03T17:25:49;2.63;;;1.90;;
47603;SDS011;33326;51.116;6.900;2022-09-03T17:30:55;3.15;;;2.15;;
47603;SDS011;33326;51.116;6.900;2022-09-03T17:36:01;4.65;;;2.13;;
47603;SDS011;33326;51.116;6.900;2022-09-03T17:41:12;3.15;;;2.30;;
47603;SDS011;33326;51.116;6.900;2022-09-03T17:46:28;2.03;;;1.90;;
47603;SDS011;33326;51.116;6.900;2022-09-03T17:51:40;3.47;;;1.95;;
47603;SDS011;33326;51.116;6.900;2022-09-03T17:56:48;4.53;;;1.70;;
47603;SDS011;33326;51.116;6.900;2022-09-03T18:01:58;2.53;;;1.75;;
47603;SDS011;33326;51.116;6.900;2022-09-03T18:07:05;5.18;;;2.42;;
47603;SDS011;33326;51.116;6.900;2022-09-03T18:12:18;2.10;;;1.90;;
47603;SDS011;33326;51.116;6.900;2022-09-03T18:17:30;3.00;;;2.15;;
47603;SDS011;33326;51.116;6.900;2022-09-03T18:22:35;4.53;;;2.10;;
47603;SDS011;33326;51.116;6.900;2022-09-03T18:28:06;2.50;;;2.20;;
47603;SDS011;33326;51.116;6.900;2022-09-03T18:33:30;3.42;;;1.90;;
47603;SDS011;33326;51.116;6.900;2022-09-03T18:38:49;2.90;;;1.93;;
47603;SDS011;33326;51.116;6.900;2022-09-03T18:44:14;5.63;;;2.88;;
47603;SDS011;33326;51.116;6.900;2022-09-03T18:49:42;2.80;;;1.88;;
47603;SDS011;33326;51.116;6.900;2022-09-03T18:55:11;1.80;;;1.40;;
47603;SDS011;33326;51.116;6.900;2022-09-03T19:00:38;3.35;;;2.10;;
47603;SDS011;33326;51.116;6.900;2022-09-03T19:06:07;2.40;;;2.20;;
47603;SDS011;33326;51.116;6.900;2022-09-03T19:11:38;4.35;;;2.40;;
47603;SDS011;33326;51.116;6.900;2022-09-03T19:17:12;3.33;;;2.17;;
47603;SDS011;33326;51.116;6.900;2022-09-03T19:22:39;2.92;;;1.80;;
47603;SDS011;33326;51.116;6.900;2022-09-03T19:28:09;6.30;;;2.80;;
47603;SDS011;33326;51.116;6.900;2022-09-03T19:33:37;3.63;;;2.15;;
47603;SDS011;33326;51.116;6.900;2022-09-03T19:39:09;2.92;;;1.67;;
47603;SDS011;33326;51.116;6.900;2022-09-03T19:44:41;2.47;;;1.88;;
47603;SDS011;33326;51.116;6.900;2022-09-03T19:50:16;3.10;;;2.08;;
47603;SDS011;33326;51.116;6.900;2022-09-03T19:55:40;2.15;;;1.95;;
47603;SDS011;33326;51.116;6.900;2022-09-03T20:01:04;3.00;;;2.40;;
47603;SDS011;33326;51.116;6.900;2022-09-03T20:06:25;4.17;;;2.00;;
47603;SDS011;33326;51.116;6.900;2022-09-03T20:11:45;3.08;;;2.30;;
47603;SDS011;33326;51.116;6.900;2022-09-03T20:16:51;2.13;;;1.77;;
47603;SDS011;33326;51.116;6.900;2022-09-03T20:22:08;2.40;;;2.20;;
47603;SDS011;33326;51.116;6.900;2022-09-03T20:27:19;4.05;;;2.08;;
47603;SDS011;33326;51.116;6.900;2022-09-03T20:37:55;3.80;;;2.35;;
47603;SDS011;33326;51.116;6.900;2022-09-03T20:43:08;2.50;;;2.10;;
47603;SDS011;33326;51.116;6.900;2022-09-03T20:48:37;2.40;;;2.20;;
47603;SDS011;33326;51.116;6.900;2022-09-03T20:59:15;3.30;;;2.55;;
47603;SDS011;33326;51.116;6.900;2022-09-03T21:04:31;2.45;;;2.10;;
47603;SDS011;33326;51.116;6.900;2022-09-03T21:09:46;3.15;;;1.90;;
47603;SDS011;33326;51.116;6.900;2022-09-03T21:14:57;2.58;;;2.13;;
47603;SDS011;33326;51.116;6.900;2022-09-03T21:20:07;2.70;;;2.25;;
47603;SDS011;33326;51.116;6.900;2022-09-03T21:25:19;2.83;;;1.95;;
47603;SDS011;33326;51.116;6.900;2022-09-03T21:30:24;2.55;;;2.13;;
47603;SDS011;33326;51.116;6.900;2022-09-03T21:35:29;3.10;;;2.13;;
47603;SDS011;33326;51.116;6.900;2022-09-03T21:40:36;3.38;;;2.38;;
47603;SDS011;33326;51.116;6.900;2022-09-03T21:45:49;5.35;;;2.25;;
47603;SDS011;33326;51.116;6.900;2022-09-03T21:50:57;2.50;;;2.10;;
47603;SDS011;33326;51.116;6.900;2022-09-03T21:56:18;2.90;;;2.15;;
47603;SDS011;33326;51.116;6.900;2022-09-03T22:01:35;3.45;;;2.50;;
47603;SDS011;33326;51.116;6.900;2022-09-03T22:06:45;2.55;;;2.30;;
47603;SDS011;33326;51.116;6.900;2022-09-03T22:12:01;2.38;;;2.10;;
47603;SDS011;33326;51.116;6.900;2022-09-03T22:17:09;3.22;;;2.35;;
47603;SDS011;33326;51.116;6.900;2022-09-03T22:22:18;2.63;;;2.42;;
47603;SDS011;33326;51.116;6.900;2022-09-03T22:27:28;2.50;;;2.25;;
47603;SDS011;33326;51.116;6.900;2022-09-03T22:32:42;3.60;;;1.90;;
47603;SDS011;33326;51.116;6.900;2022-09-03T22:37:55;2.58;;;2.38;;
47603;SDS011;33326;51.116;6.900;2022-09-03T22:43:20;2.40;;;2.20;;
47603;SDS011;33326;51.116;6.900;2022-09-03T22:48:51;3.20;;;2.13;;
47603;SDS011;33326;51.116;6.900;2022-09-03T22:54:14;4.57;;;2.33;;
47603;SDS011;33326;51.116;6.900;2022-09-03T22:59:28;3.83;;;2.63;;
47603;SDS011;33326;51.116;6.900;2022-09-03T23:04:35;4.33;;;2.70;;
47603;SDS011;33326;51.116;6.900;2022-09-03T23:09:41;3.70;;;2.38;;
47603;SDS011;33326;51.116;6.900;2022-09-03T23:14:48;2.90;;;2.40;;
47603;SDS011;33326;51.116;6.900;2022-09-03T23:19:55;4.38;;;2.80;;
47603;SDS011;33326;51.116;6.900;2022-09-03T23:25:03;5.00;;;3.15;;
47603;SDS011;33326;51.116;6.900;2022-09-03T23:30:12;4.97;;;3.42;;
47603;SDS011;33326;51.116;6.900;2022-09-03T23:35:14;4.00;;;3.20;;
47603;SDS011;33326;51.116;6.900;2022-09-03T23:45:48;4.88;;;3.00;;
47603;SDS011;33326;51.116;6.900;2022-09-03T23:50:58;6.75;;;3.38;;
47603;SDS011;33326;51.116;6.900;2022-09-03T23:56:16;4.83;;;3.10;;
